createdAt,value
2018-11-04T00:00:47.156Z,39.77
2018-11-04T00:03:56.477Z,35.17
2018-11-04T00:07:06.139Z,38.57
2018-11-04T00:10:15.460Z,40.67
2018-11-04T00:13:25.023Z,38.40
2018-11-04T00:16:34.304Z,42.17
2018-11-04T00:19:43.651Z,37.63
2018-11-04T00:22:53.144Z,44.47
2018-11-04T00:26:02.525Z,36.30
2018-11-04T00:29:11.907Z,36.57
2018-11-04T00:32:21.291Z,41.73
2018-11-04T00:35:30.544Z,40.63
2018-11-04T00:38:39.935Z,37.43
2018-11-04T00:41:49.246Z,40.43
2018-11-04T00:44:58.557Z,38.37
2018-11-04T00:48:07.741Z,38.47
2018-11-04T00:51:17.053Z,35.50
2018-11-04T00:54:26.218Z,38.90
2018-11-04T00:57:35.484Z,35.43
2018-11-04T01:00:44.901Z,36.40
2018-11-04T01:03:54.249Z,37.70
2018-11-04T01:07:03.400Z,37.40
2018-11-04T01:10:12.943Z,37.13
2018-11-04T01:13:22.083Z,40.30
2018-11-04T01:16:31.208Z,40.67
2018-11-04T01:19:40.728Z,40.87
2018-11-04T01:22:50.088Z,38.33
2018-11-04T01:25:59.425Z,40.90
2018-11-04T01:29:08.840Z,42.23
2018-11-04T01:32:17.925Z,43.23
2018-11-04T01:35:27.419Z,43.33
2018-11-04T01:38:36.603Z,37.83
2018-11-04T01:41:45.840Z,41.07
2018-11-04T01:44:55.124Z,42.53
2018-11-04T01:48:04.440Z,43.53
2018-11-04T01:51:13.863Z,39.47
2018-11-04T01:54:23.061Z,40.17
2018-11-04T01:57:32.534Z,44.30
2018-11-04T02:00:41.851Z,44.97
2018-11-04T02:03:50.998Z,45.03
2018-11-04T02:07:00.319Z,42.63
2018-11-04T02:10:11.350Z,41.77
2018-11-04T02:13:20.726Z,44.17
2018-11-04T02:16:29.874Z,43.37
2018-11-04T02:19:39.094Z,44.00
2018-11-04T02:22:48.420Z,40.17
2018-11-04T02:25:57.682Z,42.73
2018-11-04T02:29:07.017Z,40.67
2018-11-04T02:32:16.351Z,42.43
2018-11-04T02:35:25.504Z,40.60
2018-11-04T02:38:34.623Z,43.43
2018-11-04T02:41:43.877Z,40.37
2018-11-04T02:44:53.051Z,44.20
2018-11-04T02:48:02.199Z,39.77
2018-11-04T02:51:11.500Z,41.00
2018-11-04T02:54:20.837Z,40.17
2018-11-04T02:57:30.095Z,41.10
2018-11-04T03:00:39.339Z,41.63
2018-11-04T03:03:48.602Z,45.10
2018-11-04T03:06:57.767Z,44.03
2018-11-04T03:10:07.623Z,45.23
2018-11-04T03:13:16.694Z,45.07
2018-11-04T03:16:30.842Z,43.43
2018-11-04T03:19:40.079Z,41.57
2018-11-04T03:22:49.343Z,44.03
2018-11-04T03:25:58.750Z,44.00
2018-11-04T03:29:07.877Z,48.80
2018-11-04T03:32:17.598Z,45.40
2018-11-04T03:35:26.855Z,45.30
2018-11-04T03:38:36.067Z,43.07
2018-11-04T03:41:45.501Z,45.20
2018-11-04T03:44:54.908Z,45.10
2018-11-04T03:48:04.171Z,42.03
2018-11-04T03:51:13.477Z,45.63
2018-11-04T03:54:22.778Z,50.00
2018-11-04T03:57:31.986Z,45.23
2018-11-04T04:00:41.386Z,45.23
2018-11-04T04:03:50.746Z,48.40
2018-11-04T04:06:59.947Z,46.10
2018-11-04T04:10:09.766Z,48.10
2018-11-04T04:13:18.995Z,45.70
2018-11-04T04:16:28.411Z,50.53
2018-11-04T04:19:37.714Z,45.70
2018-11-04T04:22:46.854Z,48.17
2018-11-04T04:25:56.166Z,46.40
2018-11-04T04:29:05.555Z,48.23
2018-11-04T04:32:14.838Z,51.20
2018-11-04T04:35:23.991Z,51.30
2018-11-04T04:38:33.039Z,48.37
2018-11-04T04:41:42.300Z,48.87
2018-11-04T04:44:51.427Z,48.47
2018-11-04T04:48:00.704Z,51.00
2018-11-04T04:51:09.930Z,52.40
2018-11-04T04:54:19.160Z,51.27
2018-11-04T04:57:28.363Z,52.53
2018-11-04T05:00:37.488Z,48.50
2018-11-04T05:03:46.638Z,49.83
2018-11-04T05:06:55.737Z,49.27
2018-11-04T05:10:05.349Z,53.97
2018-11-04T05:13:14.683Z,51.67
2018-11-04T05:16:24.092Z,52.60
2018-11-04T05:19:33.195Z,48.60
2018-11-04T05:22:49.191Z,55.50
2018-11-04T05:25:58.447Z,56.03
2018-11-04T05:29:07.592Z,50.67
2018-11-04T05:32:16.856Z,56.93
2018-11-04T05:35:26.258Z,51.97
2018-11-04T05:38:35.395Z,49.80
2018-11-04T05:41:44.577Z,55.83
2018-11-04T05:44:53.975Z,55.33
2018-11-04T05:48:03.354Z,54.07
2018-11-04T05:51:12.507Z,54.57
2018-11-04T05:54:21.624Z,57.73
2018-11-04T05:57:30.854Z,57.67
2018-11-04T06:00:40.226Z,57.77
2018-11-04T06:03:49.511Z,61.70
2018-11-04T06:06:58.901Z,54.50
2018-11-04T06:10:08.362Z,62.20
2018-11-04T06:13:17.438Z,59.27
2018-11-04T06:16:26.557Z,60.37
2018-11-04T06:19:35.777Z,61.80
2018-11-04T06:22:45.014Z,61.90
2018-11-04T06:25:54.106Z,60.77
2018-11-04T06:29:03.499Z,66.10
2018-11-04T06:32:12.965Z,59.70
2018-11-04T06:35:22.270Z,64.63
2018-11-04T06:38:31.530Z,61.87
2018-11-04T06:41:40.725Z,61.80
2018-11-04T06:44:50.052Z,64.33
2018-11-04T06:47:59.195Z,62.67
2018-11-04T06:51:08.336Z,60.57
2018-11-04T06:54:17.464Z,64.13
2018-11-04T06:57:26.630Z,58.83
2018-11-04T07:00:36.003Z,64.83
2018-11-04T07:03:56.784Z,62.63
2018-11-04T07:07:05.971Z,62.97
2018-11-04T07:10:15.092Z,64.57
2018-11-04T07:13:24.252Z,67.60
2018-11-04T07:16:33.562Z,68.90
2018-11-04T07:19:42.843Z,65.40
2018-11-04T07:22:51.982Z,62.80
2018-11-04T07:26:01.128Z,64.80
2018-11-04T07:29:10.707Z,67.57
2018-11-04T07:32:19.807Z,70.07
2018-11-04T07:35:28.970Z,68.33
2018-11-04T07:38:38.255Z,68.80
2018-11-04T07:41:47.439Z,66.00
2018-11-04T07:44:56.724Z,73.37
2018-11-04T07:48:05.874Z,70.07
2018-11-04T07:51:15.070Z,73.57
2018-11-04T07:54:24.307Z,75.97
2018-11-04T07:57:33.543Z,78.60
2018-11-04T08:00:42.836Z,85.20
2018-11-04T08:03:52.138Z,81.37
2018-11-04T08:07:01.305Z,83.80
2018-11-04T08:10:11.944Z,80.97
2018-11-04T08:13:21.146Z,78.63
2018-11-04T08:16:30.156Z,81.57
2018-11-04T08:19:39.527Z,92.33
2018-11-04T08:22:49.002Z,88.03
2018-11-04T08:25:58.406Z,96.27
2018-11-04T08:29:07.669Z,95.53
2018-11-04T08:32:17.016Z,98.47
2018-11-04T08:35:26.249Z,83.07
2018-11-04T08:38:35.571Z,97.53
2018-11-04T08:41:44.794Z,100.70
2018-11-04T08:44:54.144Z,97.13
2018-11-04T08:48:03.462Z,99.33
2018-11-04T08:51:12.754Z,96.50
2018-11-04T08:54:21.927Z,92.60
2018-11-04T08:57:31.275Z,94.67
2018-11-04T09:00:40.466Z,89.90
2018-11-04T09:03:49.591Z,91.40
2018-11-04T09:06:58.955Z,88.57
2018-11-04T09:10:13.078Z,94.20
2018-11-04T09:13:22.229Z,87.97
2018-11-04T09:16:31.589Z,92.57
2018-11-04T09:19:40.708Z,94.87
2018-11-04T09:22:49.887Z,93.80
2018-11-04T09:25:59.169Z,97.13
2018-11-04T09:29:08.563Z,90.93
2018-11-04T09:32:17.739Z,87.83
2018-11-04T09:35:27.134Z,90.10
2018-11-04T09:38:36.314Z,92.23
2018-11-04T09:41:45.487Z,86.93
2018-11-04T09:44:54.788Z,93.57
2018-11-04T09:48:03.903Z,93.87
2018-11-04T09:51:13.195Z,85.57
2018-11-04T09:54:22.439Z,89.03
2018-11-04T09:57:31.568Z,89.60
2018-11-04T10:00:40.839Z,83.03
2018-11-04T10:03:50.069Z,87.40
2018-11-04T10:06:59.323Z,89.50
2018-11-04T10:10:11.170Z,86.60
2018-11-04T10:13:20.334Z,87.33
2018-11-04T10:16:29.445Z,83.53
2018-11-04T10:19:38.832Z,92.10
2018-11-04T10:22:47.952Z,80.33
2018-11-04T10:25:57.082Z,85.80
2018-11-04T10:29:06.594Z,90.80
2018-11-04T10:32:15.798Z,81.33
2018-11-04T10:35:25.108Z,92.23
2018-11-04T10:38:34.276Z,81.93
2018-11-04T10:41:43.810Z,82.67
2018-11-04T10:44:52.959Z,90.17
2018-11-04T10:48:02.189Z,92.57
2018-11-04T10:51:11.426Z,83.30
2018-11-04T10:54:20.536Z,86.27
2018-11-04T10:57:29.785Z,83.07
2018-11-04T11:00:44.667Z,88.13
2018-11-04T11:03:53.867Z,89.10
2018-11-04T11:07:03.062Z,90.27
2018-11-04T11:10:12.441Z,95.53
2018-11-04T11:13:21.654Z,88.93
2018-11-04T11:16:30.765Z,87.67
2018-11-04T11:19:40.180Z,91.23
2018-11-04T11:22:49.544Z,99.47
2018-11-04T11:25:58.801Z,88.33
2018-11-04T11:29:08.315Z,89.97
2018-11-04T11:32:17.676Z,102.00
2018-11-04T11:35:26.944Z,93.07
2018-11-04T11:38:36.203Z,91.40
2018-11-04T11:41:45.431Z,94.53
2018-11-04T11:44:54.650Z,94.57
2018-11-04T11:48:03.795Z,97.77
2018-11-04T11:51:12.928Z,97.47
2018-11-04T11:54:23.048Z,93.90
2018-11-04T11:57:32.318Z,98.57
2018-11-04T12:00:41.423Z,91.43
2018-11-04T12:03:50.703Z,92.63
2018-11-04T12:07:00.048Z,93.00
2018-11-04T12:10:11.148Z,101.53
2018-11-04T12:13:20.269Z,95.33
2018-11-04T12:16:29.590Z,93.33
2018-11-04T12:19:38.912Z,100.93
2018-11-04T12:22:48.234Z,96.93
2018-11-04T12:25:57.461Z,102.83
2018-11-04T12:29:06.947Z,99.33
2018-11-04T12:32:16.345Z,99.40
2018-11-04T12:35:25.609Z,100.70
2018-11-04T12:38:34.821Z,106.47
2018-11-04T12:41:44.000Z,101.50
2018-11-04T12:44:53.178Z,98.43
2018-11-04T12:48:02.542Z,102.97
2018-11-04T12:51:11.867Z,98.00
2018-11-04T12:54:21.119Z,96.07
2018-11-04T12:57:30.595Z,100.00
2018-11-04T13:00:39.868Z,108.30
2018-11-04T13:03:49.161Z,94.63
2018-11-04T13:06:58.429Z,95.43
2018-11-04T13:10:09.494Z,106.30
2018-11-04T13:13:18.617Z,99.13
2018-11-04T13:16:27.840Z,100.70
2018-11-04T13:19:37.177Z,97.17
2018-11-04T13:22:46.647Z,103.70
2018-11-04T13:25:55.735Z,102.53
2018-11-04T13:29:05.637Z,105.33
2018-11-04T13:32:14.789Z,109.33
2018-11-04T13:35:24.167Z,100.93
2018-11-04T13:38:33.538Z,106.80
2018-11-04T13:41:42.786Z,108.40
2018-11-04T13:44:52.015Z,99.17
2018-11-04T13:48:01.263Z,108.40
2018-11-04T13:51:10.372Z,106.83
2018-11-04T13:54:19.589Z,109.73
2018-11-04T13:57:28.782Z,109.97
2018-11-04T14:00:38.170Z,104.37
2018-11-04T14:03:47.497Z,107.47
2018-11-04T14:06:56.844Z,115.73
2018-11-04T14:10:06.982Z,113.60
2018-11-04T14:13:16.230Z,115.10
2018-11-04T14:16:25.514Z,122.27
2018-11-04T14:19:34.830Z,114.70
2018-11-04T14:22:44.209Z,116.07
2018-11-04T14:25:53.355Z,120.77
2018-11-04T14:29:02.541Z,116.40
2018-11-04T14:32:11.639Z,107.47
2018-11-04T14:35:20.907Z,113.73
2018-11-04T14:38:30.114Z,112.27
2018-11-04T14:41:39.399Z,109.53
2018-11-04T14:44:48.823Z,115.43
2018-11-04T14:47:58.108Z,128.03
2018-11-04T14:51:07.315Z,124.03
2018-11-04T14:54:16.623Z,124.03
2018-11-04T14:57:25.929Z,127.57
2018-11-04T15:00:35.097Z,123.03
2018-11-04T15:03:44.342Z,134.07
2018-11-04T15:06:53.799Z,125.40
2018-11-04T15:10:03.056Z,136.80
2018-11-04T15:13:12.166Z,127.10
2018-11-04T15:16:21.519Z,126.07
2018-11-04T15:19:30.768Z,129.27
2018-11-04T15:22:42.902Z,123.90
2018-11-04T15:25:52.183Z,127.87
2018-11-04T15:29:01.545Z,133.03
2018-11-04T15:32:10.659Z,133.57
2018-11-04T15:35:19.773Z,137.37
2018-11-04T15:38:28.938Z,142.87
2018-11-04T15:41:38.101Z,131.50
2018-11-04T15:44:47.390Z,125.10
2018-11-04T15:47:56.886Z,128.80
2018-11-04T15:51:06.611Z,147.43
2018-11-04T15:54:15.839Z,146.23
2018-11-04T15:57:25.239Z,152.97
2018-11-04T16:00:34.490Z,153.23
2018-11-04T16:03:43.879Z,155.33
2018-11-04T16:06:53.231Z,162.97
2018-11-04T16:10:02.539Z,148.10
2018-11-04T16:13:11.931Z,145.97
2018-11-04T16:16:21.206Z,166.20
2018-11-04T16:19:30.808Z,165.43
2018-11-04T16:22:40.556Z,158.97
2018-11-04T16:25:49.789Z,163.93
2018-11-04T16:28:59.289Z,156.50
2018-11-04T16:32:08.512Z,166.67
2018-11-04T16:35:17.738Z,178.70
2018-11-04T16:38:26.930Z,157.77
2018-11-04T16:41:36.360Z,172.93
2018-11-04T16:44:45.581Z,161.57
2018-11-04T16:47:54.866Z,155.57
2018-11-04T16:51:04.191Z,159.33
2018-11-04T16:54:13.393Z,161.97
2018-11-04T16:57:22.557Z,166.80
2018-11-04T17:00:32.172Z,148.90
2018-11-04T17:03:41.430Z,159.03
2018-11-04T17:06:50.809Z,153.00
2018-11-04T17:10:00.000Z,149.87
2018-11-04T17:13:09.330Z,145.97
2018-11-04T17:16:18.576Z,154.43
2018-11-04T17:19:28.006Z,141.10
2018-11-04T17:22:37.375Z,146.73
2018-11-04T17:25:47.076Z,149.73
2018-11-04T17:28:56.304Z,152.67
2018-11-04T17:32:05.595Z,138.43
2018-11-04T17:35:15.678Z,143.07
2018-11-04T17:38:24.839Z,148.37
2018-11-04T17:41:34.177Z,141.40
2018-11-04T17:44:43.645Z,145.27
2018-11-04T17:47:53.044Z,131.60
2018-11-04T17:51:02.165Z,129.33
2018-11-04T17:54:11.490Z,133.77
2018-11-04T17:57:27.289Z,128.13
2018-11-04T18:00:36.557Z,132.50
2018-11-04T18:03:45.939Z,127.03
2018-11-04T18:06:55.208Z,134.13
2018-11-04T18:10:04.538Z,131.30
2018-11-04T18:13:13.856Z,123.40
2018-11-04T18:16:22.991Z,135.63
2018-11-04T18:19:32.119Z,124.67
2018-11-04T18:22:41.262Z,132.20
2018-11-04T18:25:50.394Z,128.27
2018-11-04T18:28:59.500Z,133.60
2018-11-04T18:32:08.775Z,132.20
2018-11-04T18:35:18.131Z,130.00
2018-11-04T18:38:27.472Z,120.03
2018-11-04T18:41:37.359Z,128.83
2018-11-04T18:44:46.585Z,124.07
2018-11-04T18:47:55.882Z,116.17
2018-11-04T18:51:05.503Z,125.83
2018-11-04T18:54:14.821Z,115.43
2018-11-04T18:57:24.119Z,113.57
2018-11-04T19:00:33.481Z,112.37
2018-11-04T19:03:42.727Z,112.00
2018-11-04T19:06:51.983Z,105.90
2018-11-04T19:10:01.252Z,97.17
2018-11-04T19:13:10.466Z,96.60
2018-11-04T19:16:23.588Z,104.77
2018-11-04T19:19:32.908Z,101.80
2018-11-04T19:22:42.245Z,96.87
2018-11-04T19:25:51.364Z,104.93
2018-11-04T19:29:00.604Z,97.73
2018-11-04T19:32:09.818Z,93.83
2018-11-04T19:35:19.377Z,97.23
2018-11-04T19:38:28.554Z,97.87
2018-11-04T19:41:38.088Z,88.43
2018-11-04T19:44:47.419Z,98.83
2018-11-04T19:47:56.662Z,99.67
2018-11-04T19:51:06.028Z,100.80
2018-11-04T19:54:15.379Z,96.77
2018-11-04T19:57:27.759Z,97.43
2018-11-04T20:00:37.064Z,106.13
2018-11-04T20:03:46.259Z,102.80
2018-11-04T20:06:56.275Z,105.53
2018-11-04T20:10:08.924Z,115.20
2018-11-04T20:13:23.830Z,105.37
2018-11-04T20:16:33.199Z,111.67
2018-11-04T20:19:48.196Z,117.60
2018-11-04T20:22:57.519Z,113.10
2018-11-04T20:26:08.635Z,103.30
2018-11-04T20:29:17.838Z,111.87
2018-11-04T20:32:32.580Z,103.03
2018-11-04T20:35:41.647Z,92.87
2018-11-04T20:38:56.441Z,91.80
2018-11-04T20:42:05.766Z,84.83
2018-11-04T20:45:15.023Z,87.33
2018-11-04T20:48:29.550Z,81.60
2018-11-04T20:51:38.782Z,79.37
2018-11-04T20:54:48.151Z,81.10
2018-11-04T20:57:58.308Z,69.70
2018-11-04T21:01:07.408Z,68.80
2018-11-04T21:04:16.844Z,73.47
2018-11-04T21:07:26.078Z,65.40
2018-11-04T21:10:35.457Z,65.80
2018-11-04T21:13:44.648Z,70.20
2018-11-04T21:16:53.908Z,66.83
2018-11-04T21:20:03.320Z,69.20
2018-11-04T21:23:12.690Z,61.03
2018-11-04T21:26:21.818Z,66.57
2018-11-04T21:29:31.623Z,73.27
2018-11-04T21:32:40.590Z,72.53
2018-11-04T21:35:49.783Z,68.23
2018-11-04T21:38:58.892Z,70.30
2018-11-04T21:42:08.060Z,73.43
2018-11-04T21:45:17.358Z,77.67
2018-11-04T21:48:26.662Z,72.20
2018-11-04T21:51:36.008Z,72.23
2018-11-04T21:54:45.334Z,77.77
2018-11-04T21:57:54.542Z,79.10
2018-11-04T22:01:03.626Z,82.37
2018-11-04T22:04:12.878Z,79.43
2018-11-04T22:07:22.274Z,86.30
2018-11-04T22:10:31.545Z,81.03
2018-11-04T22:13:40.680Z,91.90
2018-11-04T22:16:49.934Z,88.80
2018-11-04T22:19:59.243Z,96.13
2018-11-04T22:23:08.493Z,95.27
2018-11-04T22:26:17.691Z,92.90
2018-11-04T22:29:26.990Z,99.73
2018-11-04T22:32:36.688Z,106.40
2018-11-04T22:35:46.161Z,100.80
2018-11-04T22:38:55.448Z,109.17
2018-11-04T22:42:04.802Z,104.70
2018-11-04T22:45:14.332Z,108.07
2018-11-04T22:48:23.592Z,105.23
2018-11-04T22:51:32.786Z,103.93
2018-11-04T22:54:43.711Z,109.67
2018-11-04T23:01:23.092Z,109.60
2018-11-04T23:04:37.957Z,108.37
2018-11-04T23:07:47.438Z,109.30
2018-11-04T23:10:56.953Z,108.50
2018-11-04T23:14:06.555Z,107.80
2018-11-04T23:17:15.935Z,104.60
2018-11-04T23:20:28.948Z,102.80
2018-11-04T23:23:39.071Z,93.93
2018-11-04T23:26:49.850Z,106.03
2018-11-04T23:29:59.814Z,101.70
2018-11-04T23:33:10.834Z,98.37
2018-11-04T23:36:26.872Z,103.83
2018-11-04T23:39:37.184Z,108.57
2018-11-04T23:42:50.634Z,109.23
2018-11-04T23:46:07.456Z,104.70
2018-11-04T23:49:17.354Z,112.07
2018-11-04T23:52:26.875Z,109.80
2018-11-04T23:55:36.544Z,111.10
2018-11-04T23:58:46.366Z,119.13
